createdAt,value
2024-02-24T00:00:07.696Z,23.88
2024-02-24T00:01:07.806Z,23.88
2024-02-24T00:02:07.831Z,23.89
2024-02-24T00:03:07.834Z,23.88
2024-02-24T00:04:07.864Z,23.88
2024-02-24T00:05:07.837Z,23.89
2024-02-24T00:06:08.090Z,23.89
2024-02-24T00:07:07.825Z,23.89
2024-02-24T00:08:07.869Z,23.89
2024-02-24T00:09:07.863Z,23.89
2024-02-24T00:10:07.929Z,23.89
2024-02-24T00:11:08.040Z,23.89
2024-02-24T00:12:08.015Z,23.88
2024-02-24T00:13:07.967Z,23.89
2024-02-24T00:14:07.992Z,23.89
2024-02-24T00:15:07.987Z,23.89
2024-02-24T00:16:08.016Z,23.89
2024-02-24T00:17:08.051Z,23.89
2024-02-24T00:18:08.083Z,23.89
2024-02-24T00:19:08.076Z,23.89
2024-02-24T00:20:08.085Z,23.89
2024-02-24T00:21:08.533Z,23.89
2024-02-24T00:22:08.118Z,23.90
2024-02-24T00:23:08.203Z,23.89
2024-02-24T00:24:08.149Z,23.89
2024-02-24T00:25:08.184Z,23.88
2024-02-24T00:26:08.199Z,23.89
2024-02-24T00:27:08.221Z,23.88
2024-02-24T00:28:08.212Z,23.89
2024-02-24T00:29:08.306Z,23.89
2024-02-24T00:30:08.253Z,23.89
2024-02-24T00:31:08.271Z,23.89
2024-02-24T00:32:08.313Z,23.90
2024-02-24T00:33:08.334Z,23.89
2024-02-24T00:34:08.362Z,23.89
2024-02-24T00:35:08.352Z,23.90
2024-02-24T00:36:08.353Z,23.89
2024-02-24T00:37:08.398Z,23.89
2024-02-24T00:38:08.423Z,23.90
2024-02-24T00:39:08.410Z,23.89
2024-02-24T00:40:08.437Z,23.89
2024-02-24T00:41:08.506Z,23.89
2024-02-24T00:42:08.428Z,23.89
2024-02-24T00:43:08.481Z,23.89
2024-02-24T00:44:08.500Z,23.89
2024-02-24T00:45:08.538Z,23.88
2024-02-24T00:46:08.527Z,23.89
2024-02-24T00:47:08.523Z,23.88
2024-02-24T00:48:08.575Z,23.88
2024-02-24T00:49:08.587Z,23.89
2024-02-24T00:50:09.561Z,23.89
2024-02-24T00:51:08.586Z,23.89
2024-02-24T00:52:08.616Z,23.88
2024-02-24T00:53:08.676Z,23.89
2024-02-24T00:54:08.626Z,23.89
2024-02-24T00:55:08.655Z,23.88
2024-02-24T00:56:09.098Z,23.89
2024-02-24T00:57:08.717Z,23.88
2024-02-24T00:58:08.693Z,23.88
2024-02-24T00:59:08.766Z,23.88
2024-02-24T01:00:08.759Z,23.89
2024-02-24T01:01:08.789Z,23.88
2024-02-24T01:02:08.793Z,23.88
2024-02-24T01:03:08.787Z,23.89
2024-02-24T01:04:09.007Z,23.89
2024-02-24T01:05:08.922Z,23.88
2024-02-24T01:06:09.065Z,23.89
2024-02-24T01:07:08.946Z,23.89
2024-02-24T01:08:08.943Z,23.89
2024-02-24T01:09:08.938Z,23.88
2024-02-24T01:10:08.925Z,23.88
2024-02-24T01:11:09.055Z,23.88
2024-02-24T01:12:09.027Z,23.88
2024-02-24T01:13:09.035Z,23.88
2024-02-24T01:14:09.104Z,23.89
2024-02-24T01:15:09.062Z,23.89
2024-02-24T01:16:09.564Z,23.89
2024-02-24T01:17:09.071Z,23.89
2024-02-24T01:18:09.192Z,23.89
2024-02-24T01:19:09.195Z,23.88
2024-02-24T01:20:09.160Z,23.89
2024-02-24T01:21:09.156Z,23.89
2024-02-24T01:22:09.159Z,23.89
2024-02-24T01:23:09.194Z,23.89
2024-02-24T01:24:09.204Z,23.89
2024-02-24T01:25:09.211Z,23.88
2024-02-24T01:26:09.316Z,23.89
2024-02-24T01:27:09.256Z,23.88
2024-02-24T01:28:09.288Z,23.89
2024-02-24T01:29:09.331Z,23.88
2024-02-24T01:30:09.279Z,23.88
2024-02-24T01:31:09.337Z,23.88
2024-02-24T01:32:09.388Z,23.87
2024-02-24T01:33:09.575Z,23.88
2024-02-24T01:34:09.465Z,23.88
2024-02-24T01:35:09.528Z,23.88
2024-02-24T01:36:09.438Z,23.88
2024-02-24T01:37:09.431Z,23.88
2024-02-24T01:38:09.481Z,23.89
2024-02-24T01:39:09.487Z,23.88
2024-02-24T01:40:09.516Z,23.89
2024-02-24T01:41:09.584Z,23.88
2024-02-24T01:42:09.542Z,23.88
2024-02-24T01:43:09.597Z,23.88
2024-02-24T01:44:09.644Z,23.88
2024-02-24T01:45:09.608Z,23.87
2024-02-24T01:46:09.602Z,23.88
2024-02-24T01:47:09.643Z,23.88
2024-02-24T01:48:09.742Z,23.88
2024-02-24T01:49:09.749Z,23.88
2024-02-24T01:50:09.697Z,23.88
2024-02-24T01:51:10.078Z,23.87
2024-02-24T01:52:09.732Z,23.88
2024-02-24T01:53:09.788Z,23.88
2024-02-24T01:54:09.757Z,23.87
2024-02-24T01:55:09.784Z,23.87
2024-02-24T01:56:09.840Z,23.88
2024-02-24T01:57:09.770Z,23.88
2024-02-24T01:58:09.819Z,23.88
2024-02-24T01:59:09.841Z,23.88
2024-02-24T02:00:09.831Z,23.88
2024-02-24T02:01:09.935Z,23.89
2024-02-24T02:02:09.936Z,23.88
2024-02-24T02:03:09.880Z,23.89
2024-02-24T02:04:09.954Z,23.88
2024-02-24T02:05:09.937Z,23.87
2024-02-24T02:06:10.034Z,23.88
2024-02-24T02:07:09.889Z,23.87
2024-02-24T02:08:10.004Z,23.87
2024-02-24T02:09:09.965Z,23.88
2024-02-24T02:10:09.976Z,23.88
2024-02-24T02:11:10.057Z,23.88
2024-02-24T02:12:09.993Z,23.88
2024-02-24T02:13:09.996Z,23.87
2024-02-24T02:14:10.058Z,23.88
2024-02-24T02:15:10.063Z,23.88
2024-02-24T02:16:10.057Z,23.88
2024-02-24T02:17:10.576Z,23.88
2024-02-24T02:18:10.215Z,23.89
2024-02-24T02:19:10.187Z,23.88
2024-02-24T02:20:10.143Z,23.88
2024-02-24T02:21:10.119Z,23.88
2024-02-24T02:22:10.166Z,23.88
2024-02-24T02:23:10.208Z,23.88
2024-02-24T02:24:10.174Z,23.89
2024-02-24T02:25:10.197Z,23.89
2024-02-24T02:26:10.252Z,23.88
2024-02-24T02:27:10.263Z,23.88
2024-02-24T02:28:10.268Z,23.88
2024-02-24T02:29:10.310Z,23.88
2024-02-24T02:30:10.305Z,23.88
2024-02-24T02:31:10.346Z,23.88
2024-02-24T02:32:10.373Z,23.89
2024-02-24T02:33:10.789Z,23.88
2024-02-24T02:34:10.446Z,23.89
2024-02-24T02:35:10.398Z,23.89
2024-02-24T02:36:10.572Z,23.89
2024-02-24T02:37:10.396Z,23.89
2024-02-24T02:38:10.540Z,23.89
2024-02-24T02:39:10.423Z,23.89
2024-02-24T02:40:10.471Z,23.89
2024-02-24T02:41:10.556Z,23.89
2024-02-24T02:42:10.486Z,23.89
2024-02-24T02:43:10.515Z,23.89
2024-02-24T02:44:10.544Z,23.89
2024-02-24T02:45:10.541Z,23.89
2024-02-24T02:46:10.549Z,23.88
2024-02-24T02:47:17.474Z,23.88
2024-02-24T02:48:11.752Z,23.88
2024-02-24T02:49:10.705Z,23.88
2024-02-24T02:50:10.622Z,23.88
2024-02-24T02:51:10.559Z,23.88
2024-02-24T02:52:10.552Z,23.88
2024-02-24T02:53:10.587Z,23.88
2024-02-24T02:54:10.565Z,23.88
2024-02-24T02:55:10.559Z,23.88
2024-02-24T02:56:10.563Z,23.88
2024-02-24T02:57:10.566Z,23.88
2024-02-24T02:58:10.551Z,23.87
2024-02-24T02:59:10.592Z,23.89
2024-02-24T03:00:10.597Z,23.88
2024-02-24T03:01:10.626Z,23.89
2024-02-24T03:02:10.596Z,23.88
2024-02-24T03:03:10.591Z,23.88
2024-02-24T03:04:10.586Z,23.89
2024-02-24T03:05:10.658Z,23.88
2024-02-24T03:06:10.621Z,23.89
2024-02-24T03:07:10.586Z,23.88
2024-02-24T03:08:10.660Z,23.89
2024-02-24T03:09:10.618Z,23.88
2024-02-24T03:10:10.667Z,23.88
2024-02-24T03:11:10.673Z,23.88
2024-02-24T03:12:10.715Z,23.89
2024-02-24T03:13:10.614Z,23.88
2024-02-24T03:14:10.665Z,23.88
2024-02-24T03:15:10.631Z,23.88
2024-02-24T03:16:10.650Z,23.89
2024-02-24T03:17:10.715Z,23.88
2024-02-24T03:18:10.785Z,23.89
2024-02-24T03:19:10.708Z,23.88
2024-02-24T03:20:10.734Z,23.89
2024-02-24T03:21:10.719Z,23.89
2024-02-24T03:22:10.756Z,23.89
2024-02-24T03:23:10.799Z,23.88
2024-02-24T03:24:10.761Z,23.89
2024-02-24T03:25:10.837Z,23.89
2024-02-24T03:26:11.110Z,23.88
2024-02-24T03:27:10.821Z,23.88
2024-02-24T03:28:10.835Z,23.89
2024-02-24T03:29:10.884Z,23.88
2024-02-24T03:30:10.843Z,23.88
2024-02-24T03:31:10.882Z,23.88
2024-02-24T03:32:10.913Z,23.88
2024-02-24T03:33:11.032Z,23.88
2024-02-24T03:34:11.003Z,23.89
2024-02-24T03:35:11.010Z,23.89
2024-02-24T03:36:10.949Z,23.88
2024-02-24T03:37:10.954Z,23.89
2024-02-24T03:38:11.011Z,23.89
2024-02-24T03:39:10.979Z,23.89
2024-02-24T03:40:10.982Z,23.89
2024-02-24T03:41:11.057Z,23.89
2024-02-24T03:42:11.040Z,23.88
2024-02-24T03:43:11.057Z,23.87
2024-02-24T03:44:11.097Z,23.88
2024-02-24T03:45:11.115Z,23.88
2024-02-24T03:46:11.618Z,23.89
2024-02-24T03:47:11.201Z,23.88
2024-02-24T03:48:11.233Z,23.88
2024-02-24T03:49:11.284Z,23.89
2024-02-24T03:50:11.222Z,23.88
2024-02-24T03:51:11.191Z,23.88
2024-02-24T03:52:11.229Z,23.88
2024-02-24T03:53:11.297Z,23.89
2024-02-24T03:54:11.252Z,23.88
2024-02-24T03:55:11.290Z,23.88
2024-02-24T03:56:11.667Z,23.89
2024-02-24T03:57:11.297Z,23.89
2024-02-24T03:58:11.314Z,23.88
2024-02-24T03:59:11.355Z,23.88
2024-02-24T04:00:11.405Z,23.88
2024-02-24T04:01:11.407Z,23.88
2024-02-24T04:02:11.381Z,23.88
2024-02-24T04:03:11.398Z,23.89
2024-02-24T04:04:11.424Z,23.88
2024-02-24T04:05:11.482Z,23.88
2024-02-24T04:06:11.635Z,23.89
2024-02-24T04:07:11.431Z,23.88
2024-02-24T04:08:11.448Z,23.89
2024-02-24T04:09:11.470Z,23.88
2024-02-24T04:10:11.507Z,23.88
2024-02-24T04:11:11.593Z,23.88
2024-02-24T04:12:11.563Z,23.89
2024-02-24T04:13:11.519Z,23.89
2024-02-24T04:14:11.613Z,23.89
2024-02-24T04:15:11.566Z,23.89
2024-02-24T04:16:11.622Z,23.89
2024-02-24T04:17:11.662Z,23.88
2024-02-24T04:18:11.710Z,23.88
2024-02-24T04:19:19.069Z,23.86
2024-02-24T04:20:18.957Z,23.88
2024-02-24T04:21:19.011Z,23.88
2024-02-24T04:22:18.957Z,23.88
2024-02-24T04:23:18.942Z,23.88
2024-02-24T04:24:18.915Z,23.88
2024-02-24T04:25:18.912Z,23.88
2024-02-24T04:26:18.972Z,23.88
2024-02-24T04:27:18.946Z,23.88
2024-02-24T04:28:21.126Z,23.88
2024-02-24T04:29:18.939Z,23.87
2024-02-24T04:30:18.928Z,23.88
2024-02-24T04:31:26.094Z,23.86
2024-02-24T04:32:26.122Z,23.87
2024-02-24T04:33:26.191Z,23.87
2024-02-24T04:34:26.096Z,23.87
2024-02-24T04:35:26.175Z,23.88
2024-02-24T04:36:26.178Z,23.88
2024-02-24T04:37:26.081Z,23.88
2024-02-24T04:38:26.119Z,23.88
2024-02-24T04:39:26.080Z,23.87
2024-02-24T04:40:26.075Z,23.88
2024-02-24T04:41:26.154Z,23.88
2024-02-24T04:42:26.093Z,23.89
2024-02-24T04:43:26.091Z,23.88
2024-02-24T04:44:26.075Z,23.88
2024-02-24T04:45:26.086Z,23.88
2024-02-24T04:46:26.094Z,23.89
2024-02-24T04:47:26.123Z,23.89
2024-02-24T04:48:26.203Z,23.89
2024-02-24T04:49:26.162Z,23.89
2024-02-24T04:50:26.104Z,23.89
2024-02-24T04:51:26.049Z,23.88
2024-02-24T04:52:26.036Z,23.89
2024-02-24T04:53:26.133Z,23.89
2024-02-24T04:54:26.094Z,23.89
2024-02-24T04:55:26.104Z,23.90
2024-02-24T04:56:26.108Z,23.89
2024-02-24T04:57:26.055Z,23.89
2024-02-24T04:58:26.302Z,23.90
2024-02-24T04:59:26.226Z,23.90
2024-02-24T05:00:26.053Z,23.89
2024-02-24T05:01:26.053Z,23.89
2024-02-24T05:02:26.122Z,23.89
2024-02-24T05:03:26.033Z,23.89
2024-02-24T05:04:26.136Z,23.89
2024-02-24T05:05:26.067Z,23.89
2024-02-24T05:06:26.253Z,23.89
2024-02-24T05:07:26.021Z,23.90
2024-02-24T05:08:26.014Z,23.89
2024-02-24T05:09:26.004Z,23.89
2024-02-24T05:10:25.978Z,23.88
2024-02-24T05:11:26.010Z,23.89
2024-02-24T05:12:25.945Z,23.89
2024-02-24T05:13:25.992Z,23.89
2024-02-24T05:14:25.973Z,23.89
2024-02-24T05:15:25.926Z,23.89
2024-02-24T05:16:25.929Z,23.89
2024-02-24T05:17:26.009Z,23.89
2024-02-24T05:18:26.051Z,23.89
2024-02-24T05:19:26.011Z,23.89
2024-02-24T05:20:25.952Z,23.89
2024-02-24T05:21:25.959Z,23.89
2024-02-24T05:22:25.933Z,23.89
2024-02-24T05:23:25.965Z,23.89
2024-02-24T05:24:25.915Z,23.89
2024-02-24T05:25:26.743Z,23.88
2024-02-24T05:26:26.285Z,23.89
2024-02-24T05:27:25.894Z,23.90
2024-02-24T05:28:25.925Z,23.89
2024-02-24T05:29:25.926Z,23.90
2024-02-24T05:30:25.894Z,23.89
2024-02-24T05:31:25.936Z,23.90
2024-02-24T05:32:25.986Z,23.90
2024-02-24T05:33:26.162Z,23.89
2024-02-24T05:34:26.006Z,23.90
2024-02-24T05:35:25.968Z,23.89
2024-02-24T05:36:25.894Z,23.90
2024-02-24T05:37:25.879Z,23.90
2024-02-24T05:38:25.917Z,23.90
2024-02-24T05:39:25.882Z,23.89
2024-02-24T05:40:25.899Z,23.90
2024-02-24T05:41:26.271Z,23.90
2024-02-24T05:42:25.881Z,23.90
2024-02-24T05:43:25.861Z,23.90
2024-02-24T05:44:25.910Z,23.90
2024-02-24T05:45:25.853Z,23.90
2024-02-24T05:46:25.886Z,23.89
2024-02-24T05:47:25.956Z,23.89
2024-02-24T05:48:25.841Z,23.90
2024-02-24T05:49:25.864Z,23.90
2024-02-24T05:50:25.892Z,23.90
2024-02-24T05:51:25.992Z,23.90
2024-02-24T05:52:25.801Z,23.90
2024-02-24T05:53:25.885Z,23.90
2024-02-24T05:54:25.842Z,23.90
2024-02-24T05:55:25.798Z,23.90
2024-02-24T05:56:25.786Z,23.89
2024-02-24T05:57:25.776Z,23.89
2024-02-24T05:58:26.330Z,23.89
2024-02-24T05:59:25.750Z,23.89
2024-02-24T06:00:25.755Z,23.90
2024-02-24T06:01:25.736Z,23.89
2024-02-24T06:02:25.799Z,23.89
2024-02-24T06:03:25.710Z,23.90
2024-02-24T06:04:25.700Z,23.89
2024-02-24T06:05:25.761Z,23.89
2024-02-24T06:06:25.735Z,23.89
2024-02-24T06:07:25.666Z,23.90
2024-02-24T06:08:25.684Z,23.89
2024-02-24T06:09:25.630Z,23.89
2024-02-24T06:10:25.641Z,23.88
2024-02-24T06:11:25.789Z,23.88
2024-02-24T06:12:25.663Z,23.88
2024-02-24T06:13:25.602Z,23.88
2024-02-24T06:14:25.626Z,23.88
2024-02-24T06:15:25.586Z,23.88
2024-02-24T06:16:25.608Z,23.88
2024-02-24T06:17:25.634Z,23.88
2024-02-24T06:18:25.744Z,23.88
2024-02-24T06:19:25.613Z,23.88
2024-02-24T06:20:25.686Z,23.88
2024-02-24T06:21:25.629Z,23.88
2024-02-24T06:22:25.563Z,23.88
2024-02-24T06:23:25.596Z,23.87
2024-02-24T06:24:25.563Z,23.89
2024-02-24T06:25:25.551Z,23.88
2024-02-24T06:26:25.812Z,23.88
2024-02-24T06:27:25.522Z,23.88
2024-02-24T06:28:25.527Z,23.88
2024-02-24T06:29:25.554Z,23.87
2024-02-24T06:30:25.515Z,23.88
2024-02-24T06:31:25.524Z,23.88
2024-02-24T06:32:25.583Z,23.87
2024-02-24T06:33:25.635Z,23.88
2024-02-24T06:34:25.588Z,23.86
2024-02-24T06:35:25.550Z,23.87
2024-02-24T06:36:25.555Z,23.86
2024-02-24T06:37:25.574Z,23.86
2024-02-24T06:38:25.604Z,23.87
2024-02-24T06:39:25.605Z,23.86
2024-02-24T06:40:33.081Z,23.87
2024-02-24T06:41:26.690Z,23.86
2024-02-24T06:42:25.617Z,23.86
2024-02-24T06:43:25.626Z,23.87
2024-02-24T06:44:25.625Z,23.86
2024-02-24T06:45:25.626Z,23.86
2024-02-24T06:46:25.770Z,23.86
2024-02-24T06:47:29.369Z,23.86
2024-02-24T06:48:25.832Z,23.86
2024-02-24T06:49:25.704Z,23.86
2024-02-24T06:50:25.715Z,23.86
2024-02-24T06:51:25.680Z,23.85
2024-02-24T06:52:25.694Z,23.86
2024-02-24T06:53:25.684Z,23.86
2024-02-24T06:54:25.639Z,23.85
2024-02-24T06:55:25.672Z,23.86
2024-02-24T06:56:25.682Z,23.86
2024-02-24T06:57:25.665Z,23.85
2024-02-24T06:58:25.649Z,23.86
2024-02-24T06:59:25.731Z,23.85
2024-02-24T07:00:25.767Z,23.86
2024-02-24T07:01:25.645Z,23.86
2024-02-24T07:02:25.815Z,23.86
2024-02-24T07:03:25.783Z,23.86
2024-02-24T07:04:25.669Z,23.86
2024-02-24T07:05:25.683Z,23.86
2024-02-24T07:06:27.842Z,23.86
2024-02-24T07:07:25.797Z,23.86
2024-02-24T07:08:25.666Z,23.86
2024-02-24T07:09:25.651Z,23.86
2024-02-24T07:10:25.613Z,23.86
2024-02-24T07:11:25.708Z,23.86
2024-02-24T07:12:25.656Z,23.86
2024-02-24T07:13:25.659Z,23.85
2024-02-24T07:14:25.680Z,23.86
2024-02-24T07:15:25.628Z,23.86
2024-02-24T07:16:25.649Z,23.85
2024-02-24T07:17:25.691Z,23.86
2024-02-24T07:18:25.693Z,23.86
2024-02-24T07:19:25.649Z,23.86
2024-02-24T07:20:25.651Z,23.86
2024-02-24T07:21:25.698Z,23.86
2024-02-24T07:22:25.648Z,23.86
2024-02-24T07:23:25.666Z,23.86
2024-02-24T07:24:25.622Z,23.86
2024-02-24T07:25:25.652Z,23.86
2024-02-24T07:26:25.670Z,23.86
2024-02-24T07:27:25.653Z,23.86
2024-02-24T07:28:25.629Z,23.86
2024-02-24T07:29:25.666Z,23.86
2024-02-24T07:30:25.627Z,23.86
2024-02-24T07:31:25.659Z,23.87
2024-02-24T07:32:25.807Z,23.87
2024-02-24T07:33:25.815Z,23.87
2024-02-24T07:34:25.727Z,23.86
2024-02-24T07:35:25.697Z,23.86
2024-02-24T07:36:25.653Z,23.86
2024-02-24T07:37:25.677Z,23.86
2024-02-24T07:38:25.698Z,23.86
2024-02-24T07:39:25.655Z,23.86
2024-02-24T07:40:25.672Z,23.87
2024-02-24T07:41:25.717Z,23.86
2024-02-24T07:42:25.669Z,23.86
2024-02-24T07:43:25.654Z,23.86
2024-02-24T07:44:25.740Z,23.87
2024-02-24T07:45:25.687Z,23.86
2024-02-24T07:46:25.700Z,23.86
2024-02-24T07:47:25.775Z,23.86
2024-02-24T07:48:25.805Z,23.86
2024-02-24T07:49:25.874Z,23.86
2024-02-24T07:50:25.814Z,23.86
2024-02-24T07:51:25.705Z,23.86
2024-02-24T07:52:25.712Z,23.87
2024-02-24T07:53:25.717Z,23.86
2024-02-24T07:54:25.777Z,23.87
2024-02-24T07:55:25.741Z,23.86
2024-02-24T07:56:25.785Z,23.86
2024-02-24T07:57:25.775Z,23.87
2024-02-24T07:58:25.752Z,23.87
2024-02-24T07:59:25.778Z,23.86
2024-02-24T08:00:25.729Z,23.86
2024-02-24T08:01:25.769Z,23.86
2024-02-24T08:02:25.782Z,23.86
2024-02-24T08:03:25.788Z,23.85
2024-02-24T08:04:25.762Z,23.86
2024-02-24T08:05:25.775Z,23.86
2024-02-24T08:06:25.795Z,23.86
2024-02-24T08:07:25.794Z,23.86
2024-02-24T08:08:25.800Z,23.86
2024-02-24T08:09:25.762Z,23.86
2024-02-24T08:10:25.796Z,23.86
2024-02-24T08:11:25.835Z,23.86
2024-02-24T08:12:25.866Z,23.86
2024-02-24T08:13:25.806Z,23.87
2024-02-24T08:14:25.795Z,23.87
2024-02-24T08:15:25.779Z,23.87
2024-02-24T08:16:25.811Z,23.87
2024-02-24T08:17:25.907Z,23.86
2024-02-24T08:18:26.064Z,23.86
2024-02-24T08:19:25.875Z,23.87
2024-02-24T08:20:25.918Z,23.87
2024-02-24T08:21:25.847Z,23.87
2024-02-24T08:22:25.830Z,23.87
2024-02-24T08:23:25.898Z,23.87
2024-02-24T08:24:25.855Z,23.87
2024-02-24T08:25:25.883Z,23.88
2024-02-24T08:26:25.967Z,23.89
2024-02-24T08:27:25.901Z,23.89
2024-02-24T08:28:25.897Z,23.89
2024-02-24T08:29:25.875Z,23.90
2024-02-24T08:30:25.850Z,23.90
2024-02-24T08:31:25.860Z,23.91
2024-02-24T08:32:26.401Z,23.91
2024-02-24T08:33:26.005Z,23.92
2024-02-24T08:34:25.860Z,23.92
2024-02-24T08:35:25.923Z,23.91
2024-02-24T08:36:25.993Z,23.92
2024-02-24T08:37:25.867Z,23.92
2024-02-24T08:38:25.860Z,23.92
2024-02-24T08:39:25.885Z,23.92
2024-02-24T08:40:25.890Z,23.92
2024-02-24T08:41:25.890Z,23.93
2024-02-24T08:42:26.303Z,23.93
2024-02-24T08:43:25.890Z,23.93
2024-02-24T08:44:25.938Z,23.93
2024-02-24T08:45:25.928Z,23.94
2024-02-24T08:46:25.953Z,23.94
2024-02-24T08:47:26.036Z,23.94
2024-02-24T08:48:26.154Z,23.94
2024-02-24T08:49:26.043Z,23.94
2024-02-24T08:50:26.066Z,23.94
2024-02-24T08:51:26.025Z,23.95
2024-02-24T08:52:35.230Z,23.95
2024-02-24T08:53:27.084Z,23.94
2024-02-24T08:54:26.051Z,23.95
2024-02-24T08:55:26.069Z,23.95
2024-02-24T08:56:26.272Z,23.95
2024-02-24T08:57:26.047Z,23.95
2024-02-24T08:58:26.100Z,23.95
2024-02-24T08:59:26.136Z,23.95
2024-02-24T09:00:26.095Z,23.96
2024-02-24T09:01:26.056Z,23.94
2024-02-24T09:02:26.365Z,23.95
2024-02-24T09:03:26.122Z,23.95
2024-02-24T09:04:26.097Z,23.94
2024-02-24T09:05:26.145Z,23.94
2024-02-24T09:06:26.225Z,23.94
2024-02-24T09:07:26.171Z,23.93
2024-02-24T09:08:26.193Z,23.94
2024-02-24T09:09:26.156Z,23.93
2024-02-24T09:10:26.188Z,23.93
2024-02-24T09:11:26.249Z,23.92
2024-02-24T09:12:26.361Z,23.92
2024-02-24T09:13:26.273Z,23.92
2024-02-24T09:14:26.315Z,23.91
2024-02-24T09:15:27.937Z,23.90
2024-02-24T09:16:26.312Z,23.89
2024-02-24T09:17:26.377Z,23.90
2024-02-24T09:18:26.378Z,23.90
2024-02-24T09:19:26.359Z,23.90
2024-02-24T09:20:26.365Z,23.89
2024-02-24T09:21:26.317Z,23.89
2024-02-24T09:22:26.380Z,23.89
2024-02-24T09:23:26.453Z,23.88
2024-02-24T09:24:26.350Z,23.88
2024-02-24T09:25:26.433Z,23.88
2024-02-24T09:26:26.350Z,23.87
2024-02-24T09:27:26.832Z,23.88
2024-02-24T09:28:26.281Z,23.87
2024-02-24T09:29:26.355Z,23.87
2024-02-24T09:30:26.260Z,23.87
2024-02-24T09:31:26.288Z,23.87
2024-02-24T09:32:26.291Z,23.86
2024-02-24T09:33:26.401Z,23.86
2024-02-24T09:34:26.337Z,23.86
2024-02-24T09:35:26.464Z,23.86
2024-02-24T09:36:26.301Z,23.86
2024-02-24T09:37:26.319Z,23.85
2024-02-24T09:38:26.335Z,23.85
2024-02-24T09:39:26.321Z,23.85
2024-02-24T09:40:26.314Z,23.85
2024-02-24T09:41:26.353Z,23.85
2024-02-24T09:42:26.319Z,23.86
2024-02-24T09:43:26.288Z,23.85
2024-02-24T09:44:26.308Z,23.85
2024-02-24T09:45:26.360Z,23.84
2024-02-24T09:46:26.329Z,23.84
2024-02-24T09:47:26.369Z,23.84
2024-02-24T09:48:26.581Z,23.84
2024-02-24T09:49:26.386Z,23.83
2024-02-24T09:50:26.358Z,23.83
2024-02-24T09:51:26.309Z,23.82
2024-02-24T09:52:26.317Z,23.83
2024-02-24T09:53:26.371Z,23.82
2024-02-24T09:54:26.305Z,23.82
2024-02-24T09:55:26.578Z,23.82
2024-02-24T09:56:26.361Z,23.83
2024-02-24T09:57:26.827Z,23.83
2024-02-24T09:58:26.342Z,23.83
2024-02-24T09:59:26.547Z,23.83
2024-02-24T10:00:26.369Z,23.83
2024-02-24T10:01:26.417Z,23.83
2024-02-24T10:02:26.408Z,23.83
2024-02-24T10:03:26.502Z,23.83
2024-02-24T10:04:26.425Z,23.83
2024-02-24T10:05:26.459Z,23.83
2024-02-24T10:06:26.399Z,23.83
2024-02-24T10:07:26.809Z,23.82
2024-02-24T10:08:26.406Z,23.83
2024-02-24T10:09:26.431Z,23.82
2024-02-24T10:10:26.398Z,23.82
2024-02-24T10:11:26.492Z,23.84
2024-02-24T10:12:26.384Z,23.83
2024-02-24T10:13:26.435Z,23.82
2024-02-24T10:14:26.462Z,23.82
2024-02-24T10:15:26.407Z,23.82
2024-02-24T10:16:26.422Z,23.82
2024-02-24T10:17:26.520Z,23.82
2024-02-24T10:18:26.591Z,23.82
2024-02-24T10:19:26.585Z,23.82
2024-02-24T10:20:26.493Z,23.82
2024-02-24T10:21:26.452Z,23.82
2024-02-24T10:22:26.830Z,23.82
2024-02-24T10:23:26.483Z,23.82
2024-02-24T10:24:26.440Z,23.82
2024-02-24T10:25:26.479Z,23.82
2024-02-24T10:26:26.508Z,23.82
2024-02-24T10:27:26.477Z,23.82
2024-02-24T10:28:26.460Z,23.82
2024-02-24T10:29:26.531Z,23.82
2024-02-24T10:30:27.044Z,23.81
2024-02-24T10:31:26.466Z,23.82
2024-02-24T10:32:26.515Z,23.82
2024-02-24T10:33:26.664Z,23.82
2024-02-24T10:34:26.484Z,23.81
2024-02-24T10:35:26.664Z,23.81
2024-02-24T10:36:26.484Z,23.81
2024-02-24T10:37:26.489Z,23.80
2024-02-24T10:38:34.464Z,23.81
2024-02-24T10:39:27.551Z,23.80
2024-02-24T10:40:26.539Z,23.80
2024-02-24T10:41:28.965Z,23.81
2024-02-24T10:42:26.524Z,23.80
2024-02-24T10:43:26.525Z,23.81
2024-02-24T10:44:26.565Z,23.80
2024-02-24T10:45:26.531Z,23.80
2024-02-24T10:46:26.512Z,23.80
2024-02-24T10:47:26.902Z,23.79
2024-02-24T10:48:26.720Z,23.79
2024-02-24T10:49:26.536Z,23.79
2024-02-24T10:50:26.548Z,23.79
2024-02-24T10:51:26.513Z,23.79
2024-02-24T10:52:26.500Z,23.78
2024-02-24T10:53:26.560Z,23.78
2024-02-24T10:54:26.500Z,23.78
2024-02-24T10:55:26.492Z,23.78
2024-02-24T10:56:26.607Z,23.77
2024-02-24T10:57:26.849Z,23.78
2024-02-24T10:58:26.488Z,23.78
2024-02-24T10:59:26.518Z,23.77
2024-02-24T11:00:26.481Z,23.77
2024-02-24T11:01:26.583Z,23.78
2024-02-24T11:02:26.519Z,23.78
2024-02-24T11:03:26.502Z,23.78
2024-02-24T11:04:26.572Z,23.78
2024-02-24T11:05:26.648Z,23.77
2024-02-24T11:06:26.553Z,23.77
2024-02-24T11:07:26.506Z,23.77
2024-02-24T11:08:26.551Z,23.77
2024-02-24T11:09:26.497Z,23.76
2024-02-24T11:10:26.494Z,23.76
2024-02-24T11:11:26.670Z,23.76
2024-02-24T11:12:26.873Z,23.75
2024-02-24T11:13:26.533Z,23.75
2024-02-24T11:14:26.581Z,23.75
2024-02-24T11:15:26.543Z,23.75
2024-02-24T11:16:26.675Z,23.75
2024-02-24T11:17:26.561Z,23.76
2024-02-24T11:18:26.611Z,23.76
2024-02-24T11:19:26.686Z,23.76
2024-02-24T11:20:26.627Z,23.76
2024-02-24T11:21:26.556Z,23.75
2024-02-24T11:22:26.839Z,23.75
2024-02-24T11:23:26.768Z,23.75
2024-02-24T11:24:26.570Z,23.75
2024-02-24T11:25:26.640Z,23.75
2024-02-24T11:26:26.685Z,23.75
2024-02-24T11:27:26.620Z,23.75
2024-02-24T11:28:26.638Z,23.75
2024-02-24T11:29:26.736Z,23.75
2024-02-24T11:30:26.630Z,23.75
2024-02-24T11:31:26.614Z,23.75
2024-02-24T11:32:26.673Z,23.74
2024-02-24T11:33:26.882Z,23.74
2024-02-24T11:34:26.701Z,23.74
2024-02-24T11:35:26.656Z,23.74
2024-02-24T11:36:26.617Z,23.74
2024-02-24T11:37:26.616Z,23.74
2024-02-24T11:38:26.718Z,23.73
2024-02-24T11:39:26.607Z,23.74
2024-02-24T11:40:26.601Z,23.74
2024-02-24T11:41:26.644Z,23.73
2024-02-24T11:42:26.636Z,23.74
2024-02-24T11:43:26.620Z,23.74
2024-02-24T11:44:26.695Z,23.74
2024-02-24T11:45:26.625Z,23.75
2024-02-24T11:46:26.592Z,23.74
2024-02-24T11:47:26.961Z,23.75
2024-02-24T11:48:26.814Z,23.74
2024-02-24T11:49:26.696Z,23.74
2024-02-24T11:50:26.695Z,23.75
2024-02-24T11:51:26.644Z,23.74
2024-02-24T11:52:26.656Z,23.74
2024-02-24T11:53:26.657Z,23.74
2024-02-24T11:54:26.651Z,23.74
2024-02-24T11:55:26.635Z,23.75
2024-02-24T11:56:26.800Z,23.74
2024-02-24T11:57:26.683Z,23.75
2024-02-24T11:58:26.655Z,23.75
2024-02-24T11:59:26.686Z,23.75
2024-02-24T12:00:26.660Z,23.74
2024-02-24T12:01:26.754Z,23.75
2024-02-24T12:02:26.688Z,23.74
2024-02-24T12:03:26.658Z,23.75
2024-02-24T12:04:26.752Z,23.75
2024-02-24T12:05:26.676Z,23.75
2024-02-24T12:06:26.685Z,23.75
2024-02-24T12:07:26.877Z,23.75
2024-02-24T12:08:26.665Z,23.75
2024-02-24T12:09:26.662Z,23.75
2024-02-24T12:10:26.684Z,23.75
2024-02-24T12:11:26.960Z,23.75
2024-02-24T12:12:26.726Z,23.76
2024-02-24T12:13:26.692Z,23.76
2024-02-24T12:14:26.746Z,23.77
2024-02-24T12:15:26.696Z,23.76
2024-02-24T12:16:26.699Z,23.76
2024-02-24T12:17:26.732Z,23.77
2024-02-24T12:18:26.812Z,23.76
2024-02-24T12:19:26.709Z,23.77
2024-02-24T12:20:26.659Z,23.77
2024-02-24T12:21:26.706Z,23.77
2024-02-24T12:22:26.684Z,23.77
2024-02-24T12:23:26.697Z,23.77
2024-02-24T12:24:26.678Z,23.77
2024-02-24T12:25:26.679Z,23.77
2024-02-24T12:26:26.716Z,23.77
2024-02-24T12:27:28.634Z,23.77
2024-02-24T12:28:26.715Z,23.77
2024-02-24T12:29:26.727Z,23.77
2024-02-24T12:30:26.711Z,23.77
2024-02-24T12:31:26.701Z,23.77
2024-02-24T12:32:26.913Z,23.77
2024-02-24T12:33:26.898Z,23.77
2024-02-24T12:34:26.808Z,23.77
2024-02-24T12:35:26.704Z,23.77
2024-02-24T12:36:26.713Z,23.77
2024-02-24T12:37:26.742Z,23.77
2024-02-24T12:38:26.749Z,23.77
2024-02-24T12:39:26.733Z,23.78
2024-02-24T12:40:26.753Z,23.77
2024-02-24T12:41:26.736Z,23.77
2024-02-24T12:42:26.864Z,23.76
2024-02-24T12:43:26.751Z,23.77
2024-02-24T12:44:26.791Z,23.77
2024-02-24T12:45:26.742Z,23.76
2024-02-24T12:46:26.740Z,23.77
2024-02-24T12:47:30.671Z,23.77
2024-02-24T12:48:27.885Z,23.77
2024-02-24T12:49:26.796Z,23.77
2024-02-24T12:50:26.785Z,23.77
2024-02-24T12:51:26.775Z,23.77
2024-02-24T12:52:26.807Z,23.76